NORTHERN QUEENS  -  Heat Advisory Heat Advisory     Air Quality Alert Air Quality Alert        SOUTHERN QUEENS  -  Heat Advisory Heat Advisory     Air Quality Alert Air Quality Alert      

Active alerts

Northern Queens
  Details for Northern Queens Heat Advisory  +1 additional alert
Southern Queens
  Details for Southern Queens Heat Advisory  +1 additional alert


WXM80 ListenWXM80 Stop

You find our weather info also at:

UK Metoffice

WeatherCloud

Weather Underground

Northeastern Weather Network

AWEKAS

Citizen Weather Observer Program (CWOP)

HAMweather, WeatherForYou, PWS Weather


Weather Underground History page Text

Daily Summary for August 15, 2016 Units:  English    Metric   Both
« Previous Day
Next Day »
Daily Weekly Monthly Yearly Custom
  High: Low: Average:
Temperature: 95.0 °F 74.4 °F 83 °F
Dew Point: 78.2 °F 67.7 °F 73.1 °F
Humidity: 96 % 43 % 75 %
Wind Speed: 5.7 mph 0.0 mph 1 mph
Wind Gust: 9.2 mph - -
Wind:- - WSW
Pressure: 30.17 in 29.97 in -
Precipitation: 0.00 in    
Historical Graphs
 
 
Tabular Data for August 15, 2016
Time Temperature Dew Point Pressure Wind Wind Speed Wind Gust Humidity Rainfall Rate (Hourly)
00:06 76.3 °F 75.1 °F 30.00 in SSW 0.7 mph 3.5 mph 96 % 0.00 in
00:11 76.3 °F 75.1 °F 30.00 in SSW 0.9 mph 2.3 mph 96 % 0.00 in
00:16 76.3 °F 75.1 °F 30.01 in WSW 2.7 mph 5.8 mph 96 % 0.00 in
00:21 76.3 °F 75.1 °F 30.01 in SW 3.8 mph 4.6 mph 96 % 0.00 in
00:26 76.3 °F 75.1 °F 30.01 in SW 1.6 mph 3.5 mph 96 % 0.00 in
00:32 76.4 °F 75.2 °F 30.01 in SW 0.2 mph 1.2 mph 96 % 0.00 in
00:37 76.4 °F 75.2 °F 30.01 in SW 2.3 mph 3.5 mph 96 % 0.00 in
00:42 76.4 °F 75.2 °F 30.00 in West 0.2 mph 3.5 mph 96 % 0.00 in
00:47 76.5 °F 75.3 °F 30.00 in WNW 1.1 mph 3.5 mph 96 % 0.00 in
00:52 76.6 °F 75.4 °F 30.00 in WNW 0.1 mph 2.3 mph 96 % 0.00 in
00:57 76.6 °F 75.4 °F 30.00 in WNW 2.0 mph 3.5 mph 96 % 0.00 in
01:02 76.6 °F 75.4 °F 30.00 in WNW 0.4 mph 2.3 mph 96 % 0.00 in
01:07 76.6 °F 75.4 °F 30.00 in WNW 0.3 mph 1.2 mph 96 % 0.00 in
01:12 76.6 °F 75.4 °F 30.00 in Calm   1.2 mph 96 % 0.00 in
01:17 76.6 °F 75.4 °F 30.00 in Calm     96 % 0.00 in
01:27 76.7 °F 75.5 °F 29.99 in Calm   1.2 mph 96 % 0.00 in
01:32 76.7 °F 75.5 °F 29.98 in Calm   1.2 mph 96 % 0.00 in
01:38 76.7 °F 75.5 °F 29.97 in Calm     96 % 0.00 in
01:43 76.7 °F 75.5 °F 29.97 in Calm   1.2 mph 96 % 0.00 in
01:48 76.7 °F 75.2 °F 29.97 in Calm     95 % 0.00 in
01:53 76.7 °F 75.2 °F 29.97 in Calm     95 % 0.00 in
02:03 76.6 °F 75.1 °F 29.99 in WNW 0.2 mph 1.2 mph 95 % 0.00 in
02:08 76.6 °F 75.1 °F 29.99 in WNW 0.3 mph 1.2 mph 95 % 0.00 in
02:13 76.6 °F 75.1 °F 30.00 in WNW 0.1 mph 1.0 mph 95 % 0.00 in
02:18 76.5 °F 75.0 °F 30.00 in Calm     95 % 0.00 in
02:23 76.6 °F 75.4 °F 30.01 in WNW 0.3 mph 2.0 mph 96 % 0.00 in
02:29 76.5 °F 75.3 °F 30.01 in WNW 1.0 mph 3.5 mph 96 % 0.00 in
02:34 76.5 °F 75.3 °F 30.01 in WNW 0.4 mph 1.2 mph 96 % 0.00 in
02:39 76.5 °F 75.3 °F 30.01 in West 0.4 mph 2.3 mph 96 % 0.00 in
02:44 76.5 °F 75.3 °F 30.01 in WSW 1.9 mph 4.0 mph 96 % 0.00 in
02:54 76.5 °F 75.3 °F 30.01 in Calm   1.2 mph 96 % 0.00 in
02:59 76.4 °F 75.2 °F 30.00 in WSW 0.1 mph 1.2 mph 96 % 0.00 in
03:04 76.4 °F 75.2 °F 30.00 in Calm     96 % 0.00 in
03:09 76.4 °F 75.2 °F 30.01 in Calm     96 % 0.00 in
03:14 76.3 °F 75.1 °F 30.01 in WSW 0.3 mph 1.2 mph 96 % 0.00 in
03:20 76.3 °F 75.1 °F 30.01 in Calm   1.2 mph 96 % 0.00 in
03:25 76.3 °F 74.8 °F 30.02 in WSW 0.2 mph 2.3 mph 95 % 0.00 in
03:30 76.2 °F 74.7 °F 30.02 in Calm     95 % 0.00 in
03:35 76.2 °F 74.7 °F 30.02 in Calm     95 % 0.00 in
03:40 76.2 °F 74.7 °F 30.02 in Calm     95 % 0.00 in
03:45 76.1 °F 74.6 °F 30.02 in WSW 1.4 mph 3.5 mph 95 % 0.00 in
03:50 76.1 °F 74.6 °F 30.02 in WSW 0.2 mph 1.2 mph 95 % 0.00 in
03:55 76.0 °F 74.5 °F 30.02 in West 1.1 mph 2.3 mph 95 % 0.00 in
04:00 76.0 °F 74.5 °F 30.03 in West 1.7 mph 3.5 mph 95 % 0.00 in
04:05 75.9 °F 74.4 °F 30.03 in West 0.5 mph 3.0 mph 95 % 0.00 in
04:11 75.8 °F 74.3 °F 30.03 in West 1.0 mph 4.0 mph 95 % 0.00 in
04:16 75.8 °F 74.2 °F 30.03 in West 1.0 mph 4.0 mph 95 % 0.00 in
04:21 75.7 °F 74.2 °F 30.03 in Calm   4.0 mph 95 % 0.00 in
04:26 75.7 °F 74.5 °F 30.03 in Calm   2.0 mph 96 % 0.00 in
04:31 75.7 °F 74.5 °F 30.04 in Calm   3.0 mph 96 % 0.00 in
04:36 75.7 °F 74.5 °F 30.04 in Calm   1.0 mph 96 % 0.00 in
04:41 75.7 °F 74.5 °F 30.04 in Calm   1.0 mph 96 % 0.00 in
04:46 75.6 °F 74.1 °F 30.04 in Calm   3.0 mph 95 % 0.00 in
04:51 75.5 °F 74.0 °F 30.04 in Calm   3.0 mph 95 % 0.00 in
04:56 75.4 °F 73.9 °F 30.04 in North 1.0 mph 4.0 mph 95 % 0.00 in
05:01 75.3 °F 73.8 °F 30.04 in Calm   1.2 mph 95 % 0.00 in
05:06 75.3 °F 73.8 °F 30.05 in NNW 0.4 mph 2.3 mph 95 % 0.00 in
05:11 75.2 °F 73.7 °F 30.05 in Calm     95 % 0.00 in
05:16 75.2 °F 73.7 °F 30.05 in Calm     95 % 0.00 in
05:21 75.1 °F 73.6 °F 30.05 in Calm     95 % 0.00 in
05:26 75.1 °F 73.6 °F 30.05 in Calm     95 % 0.00 in
05:31 75.1 °F 73.6 °F 30.05 in Calm   1.2 mph 95 % 0.00 in
05:36 75.0 °F 73.5 °F 30.06 in North 0.5 mph 1.2 mph 95 % 0.00 in
05:41 75.0 °F 73.5 °F 30.06 in Calm     95 % 0.00 in
05:47 74.9 °F 73.4 °F 30.06 in Calm     95 % 0.00 in
05:52 74.9 °F 73.4 °F 30.06 in Calm     95 % 0.00 in
05:57 74.9 °F 73.4 °F 30.06 in Calm   1.2 mph 95 % 0.00 in
05:59 74.9 °F 73.4 °F 30.06 in Calm     95 % 0.00 in
06:04 74.9 °F 73.4 °F 30.07 in Calm   1.2 mph 95 % 0.00 in
06:09 74.8 °F 73.3 °F 30.07 in North 0.8 mph 2.3 mph 95 % 0.00 in
06:14 74.8 °F 73.3 °F 30.07 in North 0.9 mph 2.3 mph 95 % 0.00 in
06:19 74.8 °F 73.3 °F 30.07 in Calm   1.2 mph 95 % 0.00 in
06:24 74.7 °F 73.2 °F 30.07 in North 0.5 mph 2.3 mph 95 % 0.00 in
06:29 74.6 °F 73.1 °F 30.07 in North 1.6 mph 3.5 mph 95 % 0.00 in
06:34 74.5 °F 73.0 °F 30.07 in North 2.6 mph 3.5 mph 95 % 0.00 in
06:40 74.4 °F 72.9 °F 30.07 in North 1.1 mph 3.5 mph 95 % 0.00 in
06:45 74.4 °F 72.9 °F 30.07 in North 0.7 mph 3.5 mph 95 % 0.00 in
06:50 74.4 °F 72.9 °F 30.08 in Calm     95 % 0.00 in
06:55 74.4 °F 72.9 °F 30.08 in Calm     95 % 0.00 in
07:00 74.5 °F 73.0 °F 30.08 in Calm   1.2 mph 95 % 0.00 in
07:05 74.6 °F 73.1 °F 30.09 in Calm   2.3 mph 95 % 0.00 in
07:10 74.7 °F 73.2 °F 30.09 in North 0.9 mph 1.2 mph 95 % 0.00 in
07:15 74.8 °F 73.3 °F 30.09 in Calm     95 % 0.00 in
07:20 74.9 °F 73.4 °F 30.09 in Calm     95 % 0.00 in
07:25 74.9 °F 73.4 °F 30.09 in Calm     95 % 0.00 in
07:31 75.0 °F 73.5 °F 30.09 in Calm     95 % 0.00 in
07:36 75.0 °F 73.2 °F 30.09 in Calm   2.0 mph 94 % 0.00 in
07:41 75.0 °F 73.2 °F 30.09 in Calm     94 % 0.00 in
07:46 75.1 °F 73.3 °F 30.10 in Calm     94 % 0.00 in
07:51 75.1 °F 73.2 °F 30.09 in Calm     94 % 0.00 in
07:56 75.1 °F 72.9 °F 30.10 in Calm   1.0 mph 93 % 0.00 in
08:01 75.0 °F 72.8 °F 30.10 in Calm     93 % 0.00 in
08:06 75.1 °F 72.9 °F 30.10 in North 0.1 mph 1.2 mph 93 % 0.00 in
08:11 75.2 °F 73.0 °F 30.10 in North 0.3 mph 1.2 mph 93 % 0.00 in
08:16 75.3 °F 73.1 °F 30.10 in North 1.2 mph 2.3 mph 93 % 0.00 in
08:21 75.5 °F 73.0 °F 30.10 in North 0.9 mph 2.3 mph 92 % 0.00 in
08:26 75.5 °F 73.0 °F 30.10 in North 0.5 mph 1.0 mph 92 % 0.00 in
08:31 75.6 °F 73.1 °F 30.10 in North 0.9 mph 2.3 mph 92 % 0.00 in
08:36 75.7 °F 72.9 °F 30.10 in North 0.4 mph 1.2 mph 91 % 0.00 in
08:41 75.8 °F 73.0 °F 30.10 in North 1.4 mph 3.0 mph 91 % 0.00 in
08:46 75.9 °F 72.8 °F 30.11 in North 0.4 mph 2.3 mph 90 % 0.00 in
08:52 76.0 °F 72.9 °F 30.10 in Calm   2.3 mph 90 % 0.00 in
08:57 76.0 °F 72.5 °F 30.11 in NNW 0.9 mph 2.3 mph 89 % 0.00 in
09:02 76.2 °F 72.7 °F 30.11 in West 0.7 mph 4.0 mph 89 % 0.00 in
09:07 76.3 °F 72.5 °F 30.11 in NE 1.5 mph 3.5 mph 88 % 0.00 in
09:12 76.4 °F 72.2 °F 30.11 in Calm   3.5 mph 87 % 0.00 in
09:17 76.6 °F 72.8 °F 30.11 in North 2.3 mph 3.5 mph 88 % 0.00 in
09:22 76.7 °F 72.5 °F 30.11 in North 0.8 mph 2.3 mph 87 % 0.00 in
09:27 76.8 °F 72.3 °F 30.11 in NNE 0.4 mph 2.3 mph 86 % 0.00 in
09:32 76.9 °F 72.4 °F 30.11 in North 1.2 mph 3.5 mph 86 % 0.00 in
09:37 77.1 °F 72.2 °F 30.11 in West 0.3 mph 2.0 mph 85 % 0.00 in
09:42 77.3 °F 72.1 °F 30.11 in West 0.7 mph 3.5 mph 84 % 0.00 in
09:47 77.7 °F 72.5 °F 30.12 in North 0.1 mph 3.5 mph 84 % 0.00 in
09:53 78.3 °F 73.1 °F 30.12 in NNW 0.5 mph 2.3 mph 84 % 0.00 in
09:58 79.0 °F 73.4 °F 30.11 in North 1.8 mph 3.5 mph 83 % 0.00 in
10:03 79.9 °F 74.6 °F 30.11 in North 1.8 mph 3.5 mph 84 % 0.00 in
10:08 80.6 °F 73.5 °F 30.11 in North 1.7 mph 4.0 mph 79 % 0.00 in
10:13 81.2 °F 73.7 °F 30.11 in Calm   2.3 mph 78 % 0.00 in
10:23 82.3 °F 74.4 °F 30.11 in NNW 0.4 mph 3.5 mph 77 % 0.00 in
10:28 82.7 °F 73.2 °F 30.11 in NE 1.4 mph 2.3 mph 73 % 0.00 in
10:33 83.4 °F 73.4 °F 30.12 in NNE 1.4 mph 4.0 mph 72 % 0.00 in
10:38 83.9 °F 73.1 °F 30.12 in NNE 2.9 mph 4.0 mph 70 % 0.00 in
10:44 84.4 °F 73.1 °F 30.12 in NNE 2.9 mph 4.6 mph 69 % 0.00 in
10:49 84.9 °F 74.0 °F 30.11 in NNE 0.7 mph 2.3 mph 70 % 0.00 in
10:54 85.4 °F 72.7 °F 30.11 in NNE 1.4 mph 3.5 mph 66 % 0.00 in
10:59 86.0 °F 73.8 °F 30.12 in North 2.0 mph 3.5 mph 67 % 0.00 in
11:04 86.4 °F 74.6 °F 30.12 in North 3.0 mph 3.5 mph 68 % 0.00 in
11:09 87.0 °F 75.2 °F 30.12 in NNE 2.8 mph 5.0 mph 68 % 0.00 in
11:14 87.4 °F 75.1 °F 30.12 in North 1.2 mph 3.5 mph 67 % 0.00 in
11:19 87.8 °F 75.0 °F 30.12 in North 2.8 mph 4.6 mph 66 % 0.00 in
11:24 88.3 °F 76.4 °F 30.12 in NNE 2.1 mph 3.5 mph 68 % 0.00 in
11:29 88.7 °F 75.9 °F 30.11 in North 0.2 mph 2.3 mph 66 % 0.00 in
11:34 88.9 °F 74.2 °F 30.12 in SSW 0.2 mph 2.3 mph 62 % 0.00 in
11:40 89.3 °F 76.4 °F 30.12 in NW 1.1 mph 2.3 mph 66 % 0.00 in
11:45 89.7 °F 74.9 °F 30.12 in SW 2.4 mph 3.5 mph 62 % 0.00 in
11:50 90.0 °F 74.7 °F 30.11 in SW 2.1 mph 3.5 mph 61 % 0.00 in
11:55 90.3 °F 75.0 °F 30.11 in NW 1.3 mph 4.0 mph 61 % 0.00 in
12:00 90.5 °F 74.7 °F 30.12 in WNW 1.0 mph 3.5 mph 60 % 0.00 in
12:05 90.7 °F 74.9 °F 30.12 in SW 3.9 mph 5.8 mph 60 % 0.00 in
12:10 91.1 °F 78.2 °F 30.12 in NNW 0.6 mph 3.5 mph 66 % 0.00 in
12:15 91.5 °F 77.1 °F 30.12 in WNW 2.6 mph 3.5 mph 63 % 0.00 in
12:20 91.7 °F 75.8 °F 30.12 in North 2.4 mph 3.5 mph 60 % 0.00 in
12:25 91.9 °F 76.0 °F 30.12 in WSW 2.7 mph 3.5 mph 60 % 0.00 in
12:31 92.3 °F 77.4 °F 30.11 in Calm   2.0 mph 62 % 0.00 in
12:36 92.5 °F 75.0 °F 30.11 in NW 2.6 mph 4.6 mph 57 % 0.00 in
12:41 92.6 °F 74.6 °F 30.12 in West 2.0 mph 5.0 mph 56 % 0.00 in
12:46 92.6 °F 76.7 °F 30.11 in West 2.0 mph 4.0 mph 60 % 0.00 in
12:51 92.7 °F 76.3 °F 30.11 in WNW 0.9 mph 4.6 mph 59 % 0.00 in
12:56 92.8 °F 75.3 °F 30.11 in West 2.0 mph 6.0 mph 57 % 0.00 in
13:01 92.5 °F 76.1 °F 30.11 in NNE 1.8 mph 3.5 mph 59 % 0.00 in
13:06 92.5 °F 76.6 °F 30.12 in NNW 2.0 mph 4.6 mph 60 % 0.00 in
13:11 92.6 °F 76.2 °F 30.11 in WNW 1.2 mph 4.6 mph 59 % 0.00 in
13:16 92.8 °F 75.3 °F 30.12 in NW 1.6 mph 4.0 mph 57 % 0.00 in
13:21 92.9 °F 74.4 °F 30.11 in SW 1.6 mph 3.5 mph 55 % 0.00 in
13:26 93.1 °F 75.6 °F 30.11 in NW 1.9 mph 4.6 mph 57 % 0.00 in
13:31 93.3 °F 74.7 °F 30.11 in WSW 4.5 mph 6.9 mph 55 % 0.00 in
13:36 93.5 °F 76.5 °F 30.11 in SW 0.1 mph 2.3 mph 58 % 0.00 in
13:41 93.8 °F 76.3 °F 30.11 in West 1.4 mph 7.0 mph 57 % 0.00 in
13:46 93.8 °F 73.5 °F 30.11 in West 3.1 mph 5.0 mph 52 % 0.00 in
13:52 93.8 °F 74.1 °F 30.12 in NW 2.6 mph 8.1 mph 53 % 0.00 in
13:57 93.8 °F 74.1 °F 30.11 in NW 1.8 mph 6.0 mph 53 % 0.00 in
14:02 93.8 °F 74.1 °F 30.12 in NNE 1.7 mph 3.5 mph 53 % 0.00 in
14:07 93.8 °F 74.1 °F 30.11 in NW 2.2 mph 3.0 mph 53 % 0.00 in
14:12 94.0 °F 74.8 °F 30.11 in North 1.4 mph 3.5 mph 54 % 0.00 in
14:17 93.9 °F 73.0 °F 30.11 in NW 2.1 mph 6.9 mph 51 % 0.00 in
14:22 94.0 °F 73.1 °F 30.11 in NNW 1.8 mph 3.5 mph 51 % 0.00 in
14:27 94.1 °F 74.4 °F 30.11 in NW 2.7 mph 4.6 mph 53 % 0.00 in
14:32 94.2 °F 73.9 °F 30.11 in North 2.9 mph 4.6 mph 52 % 0.00 in
14:37 94.0 °F 70.1 °F 30.11 in NW 4.4 mph 5.0 mph 46 % 0.00 in
14:43 94.0 °F 73.7 °F 30.11 in West 1.2 mph 5.8 mph 52 % 0.00 in
14:48 94.0 °F 71.9 °F 30.11 in WNW 2.7 mph 5.8 mph 49 % 0.00 in
14:53 94.3 °F 74.0 °F 30.11 in SW 1.4 mph 3.5 mph 52 % 0.00 in
14:58 94.6 °F 73.1 °F 30.11 in NNW 4.0 mph 5.8 mph 50 % 0.00 in
15:03 94.7 °F 73.2 °F 30.11 in SW 1.2 mph 5.8 mph 50 % 0.00 in
15:08 94.9 °F 73.4 °F 30.11 in WSW 2.2 mph 5.0 mph 50 % 0.00 in
15:13 95.0 °F 72.8 °F 30.11 in WNW 1.4 mph 2.3 mph 49 % 0.00 in
15:23 94.8 °F 70.8 °F 30.11 in West 3.0 mph 6.9 mph 46 % 0.00 in
15:28 94.8 °F 71.4 °F 30.10 in WNW 3.8 mph 6.0 mph 47 % 0.00 in
15:34 94.9 °F 69.6 °F 30.10 in WNW 5.5 mph 9.2 mph 44 % 0.00 in
15:39 94.6 °F 70.0 °F 30.10 in WNW 4.8 mph 8.1 mph 45 % 0.00 in
15:44 94.2 °F 70.9 °F 30.10 in NW 0.4 mph 5.8 mph 47 % 0.00 in
15:49 94.0 °F 70.7 °F 30.10 in WNW 2.9 mph 7.0 mph 47 % 0.00 in
15:54 94.0 °F 70.1 °F 30.10 in SW 1.2 mph 3.5 mph 46 % 0.00 in
15:59 94.0 °F 68.8 °F 30.10 in WNW 5.7 mph 9.2 mph 44 % 0.00 in
16:04 94.0 °F 70.7 °F 30.10 in West 0.9 mph 6.9 mph 47 % 0.00 in
16:09 94.1 °F 69.5 °F 30.10 in WSW 5.7 mph 7.0 mph 45 % 0.00 in
16:14 94.0 °F 70.7 °F 30.10 in SW 1.9 mph 4.0 mph 47 % 0.00 in
16:20 94.0 °F 69.4 °F 30.10 in SW 2.9 mph 4.6 mph 45 % 0.00 in
16:25 94.1 °F 70.8 °F 30.10 in NNW 0.2 mph 2.3 mph 47 % 0.00 in
16:30 94.1 °F 68.9 °F 30.09 in WSW 4.3 mph 4.6 mph 44 % 0.00 in
16:35 93.9 °F 68.7 °F 30.09 in West 1.5 mph 4.0 mph 44 % 0.00 in
16:40 93.6 °F 67.7 °F 30.09 in NW 1.7 mph 5.8 mph 43 % 0.00 in
16:45 93.4 °F 68.9 °F 30.09 in West 2.5 mph 4.6 mph 45 % 0.00 in
16:50 93.4 °F 68.9 °F 30.09 in WNW 4.1 mph 6.0 mph 45 % 0.00 in
16:55 93.4 °F 68.2 °F 30.09 in West 2.7 mph 5.0 mph 44 % 0.00 in
17:00 93.6 °F 69.1 °F 30.10 in SW 4.0 mph 7.0 mph 45 % 0.00 in
17:05 93.6 °F 69.1 °F 30.09 in West 2.1 mph 3.5 mph 45 % 0.00 in
17:11 93.6 °F 68.4 °F 30.09 in WSW 2.8 mph 3.5 mph 44 % 0.00 in
17:16 93.5 °F 69.6 °F 30.09 in WSW 1.0 mph 6.0 mph 46 % 0.00 in
17:21 93.4 °F 69.5 °F 30.10 in WSW 1.0 mph 4.0 mph 46 % 0.00 in
17:26 93.3 °F 68.8 °F 30.09 in NNW 1.6 mph 4.6 mph 45 % 0.00 in
17:31 93.1 °F 69.2 °F 30.10 in WNW 2.0 mph 5.0 mph 46 % 0.00 in
17:41 92.6 °F 68.8 °F 30.10 in WSW 2.7 mph 4.6 mph 46 % 0.00 in
17:46 92.3 °F 69.2 °F 30.10 in West 2.0 mph 3.0 mph 47 % 0.00 in
17:51 92.0 °F 68.9 °F 30.10 in Calm   4.0 mph 47 % 0.00 in
17:56 91.9 °F 69.4 °F 30.10 in West 0.8 mph 3.5 mph 48 % 0.00 in
18:01 91.7 °F 69.8 °F 30.10 in NNW 0.8 mph 2.3 mph 49 % 0.00 in
18:06 91.5 °F 69.6 °F 30.11 in WNW 2.5 mph 4.6 mph 49 % 0.00 in
18:11 91.3 °F 69.5 °F 30.10 in NW 3.1 mph 6.9 mph 49 % 0.00 in
18:16 91.0 °F 69.8 °F 30.10 in NW 1.5 mph 2.3 mph 50 % 0.00 in
18:21 90.8 °F 70.2 °F 30.10 in West 1.3 mph 3.5 mph 51 % 0.00 in
18:26 90.6 °F 69.4 °F 30.10 in WNW 1.6 mph 3.5 mph 50 % 0.00 in
18:31 90.4 °F 69.2 °F 30.11 in West 0.1 mph 1.2 mph 50 % 0.00 in
18:36 90.2 °F 69.0 °F 30.11 in WNW 0.7 mph 3.5 mph 50 % 0.00 in
18:41 89.8 °F 69.3 °F 30.11 in WNW 3.2 mph 4.0 mph 51 % 0.00 in
18:47 89.4 °F 68.9 °F 30.10 in West 0.2 mph 1.2 mph 51 % 0.00 in
18:52 89.2 °F 69.3 °F 30.10 in West 0.5 mph 3.5 mph 52 % 0.00 in
18:57 88.8 °F 69.5 °F 30.10 in NW 1.2 mph 3.5 mph 53 % 0.00 in
19:02 88.5 °F 69.7 °F 30.10 in NW 0.9 mph 3.0 mph 54 % 0.00 in
19:07 88.3 °F 69.5 °F 30.11 in NW 0.1 mph 1.2 mph 54 % 0.00 in
19:12 88.0 °F 69.8 °F 30.11 in Calm     55 % 0.00 in
19:17 87.7 °F 69.5 °F 30.11 in Calm     55 % 0.00 in
19:22 87.5 °F 69.9 °F 30.11 in Calm     56 % 0.00 in
19:27 87.2 °F 69.6 °F 30.11 in Calm   2.3 mph 56 % 0.00 in
19:32 86.9 °F 70.3 °F 30.11 in NW 0.5 mph 1.2 mph 58 % 0.00 in
19:38 86.7 °F 71.2 °F 30.11 in NW 0.1 mph 1.2 mph 60 % 0.00 in
19:43 86.4 °F 71.4 °F 30.11 in Calm     61 % 0.00 in
19:48 86.1 °F 71.6 °F 30.11 in Calm     62 % 0.00 in
19:53 85.9 °F 71.8 °F 30.12 in NW 0.4 mph 1.2 mph 63 % 0.00 in
19:58 85.6 °F 71.6 °F 30.12 in NW 0.7 mph 1.2 mph 63 % 0.00 in
20:03 85.3 °F 71.7 °F 30.12 in NW 0.5 mph 2.3 mph 64 % 0.00 in
20:08 85.1 °F 72.5 °F 30.12 in Calm   1.2 mph 66 % 0.00 in
20:13 84.7 °F 72.1 °F 30.12 in Calm   1.2 mph 66 % 0.00 in
20:18 84.4 °F 72.7 °F 30.12 in Calm   2.3 mph 68 % 0.00 in
20:23 84.2 °F 72.9 °F 30.12 in Calm     69 % 0.00 in
20:29 83.9 °F 72.6 °F 30.13 in NW 0.2 mph 1.2 mph 69 % 0.00 in
20:34 83.6 °F 72.8 °F 30.13 in NW 0.5 mph 1.2 mph 70 % 0.00 in
20:39 83.3 °F 72.5 °F 30.13 in NW 0.2 mph 1.2 mph 70 % 0.00 in
20:44 83.0 °F 72.6 °F 30.13 in NW 0.4 mph 1.2 mph 71 % 0.00 in
20:49 82.8 °F 72.8 °F 30.14 in NW 0.3 mph 1.2 mph 72 % 0.00 in
20:54 82.5 °F 72.6 °F 30.14 in NW 0.1 mph 1.2 mph 72 % 0.00 in
20:59 82.3 °F 72.8 °F 30.14 in South 0.1 mph 1.2 mph 73 % 0.00 in
21:04 82.0 °F 72.5 °F 30.14 in South 0.1 mph 1.2 mph 73 % 0.00 in
21:09 81.8 °F 72.7 °F 30.14 in Calm   1.2 mph 74 % 0.00 in
21:14 81.6 °F 72.5 °F 30.14 in Calm     74 % 0.00 in
21:19 81.4 °F 72.7 °F 30.13 in Calm     75 % 0.00 in
21:24 81.2 °F 72.5 °F 30.14 in SW 0.1 mph 1.2 mph 75 % 0.00 in
21:30 81.0 °F 72.7 °F 30.13 in SW 0.2 mph   76 % 0.00 in
21:35 80.8 °F 72.9 °F 30.14 in SW 0.1 mph 1.2 mph 77 % 0.00 in
21:40 80.6 °F 72.7 °F 30.15 in SW 0.2 mph 1.2 mph 77 % 0.00 in
21:45 80.4 °F 72.9 °F 30.15 in SW 1.0 mph 3.5 mph 78 % 0.00 in
21:50 80.2 °F 72.7 °F 30.15 in SW 0.1 mph 1.2 mph 78 % 0.00 in
21:55 80.1 °F 73.0 °F 30.15 in Calm   2.3 mph 79 % 0.00 in
22:00 80.0 °F 72.9 °F 30.15 in Calm     79 % 0.00 in
22:05 79.8 °F 73.1 °F 30.15 in SSW 0.3 mph   80 % 0.00 in
22:10 79.7 °F 73.0 °F 30.15 in SSW 0.1 mph 1.2 mph 80 % 0.00 in
22:15 79.6 °F 73.3 °F 30.15 in SW 0.3 mph 2.3 mph 81 % 0.00 in
22:21 79.5 °F 73.5 °F 30.16 in SW 1.0 mph 5.0 mph 82 % 0.00 in
22:26 79.4 °F 73.8 °F 30.16 in SW 1.0 mph 2.0 mph 83 % 0.00 in
22:30 79.3 °F 73.7 °F 30.16 in SSW 1.0 mph 2.3 mph 83 % 0.00 in
22:36 79.3 °F 74.0 °F 30.16 in WSW 1.0 mph 5.0 mph 84 % 0.00 in
22:46 79.2 °F 73.9 °F 30.16 in West 1.0 mph 3.0 mph 84 % 0.00 in
22:51 79.1 °F 73.9 °F 30.15 in Calm   3.0 mph 84 % 0.00 in
22:56 79.1 °F 73.8 °F 30.16 in SW 1.0 mph 2.0 mph 84 % 0.00 in
23:06 79.0 °F 73.7 °F 30.16 in SW 1.0 mph 2.0 mph 84 % 0.00 in
23:16 78.9 °F 73.7 °F 30.16 in WSW 0.7 mph 2.3 mph 84 % 0.00 in
23:21 78.8 °F 73.6 °F 30.16 in Calm   2.0 mph 84 % 0.00 in
23:26 78.8 °F 73.6 °F 30.16 in Calm   2.0 mph 84 % 0.00 in
23:31 78.7 °F 73.5 °F 30.16 in WSW 1.0 mph 2.0 mph 84 % 0.00 in
23:36 78.6 °F 73.4 °F 30.17 in Calm   2.0 mph 84 % 0.00 in
23:41 78.6 °F 73.7 °F 30.16 in SW 1.0 mph 2.0 mph 85 % 0.00 in
23:46 78.6 °F 73.7 °F 30.16 in Calm   2.0 mph 85 % 0.00 in
23:51 78.5 °F 73.6 °F 30.16 in SW 1.0 mph 2.0 mph 85 % 0.00 in
23:56 78.5 °F 73.6 °F 30.16 in Calm   2.0 mph 85 % 0.00 in
Crab Meadow Weather
Compliments of Weather Underground - 3 mb

Script developed by  Jim McMurry - jmcmurry@mwt.net Adapted for the template by  Wim van der Kuil - Leuven-Template.eu

Weather Terms: Wind Chill Advisory - Dangerous wind chills of -20°F to -30°F.